Time;durP1;ratioP1;P1;durP2;ratioP2;P2;SDS_P1;SDS_P2;PMS_P1;PMS_P2;Temp;Humidity;BMP_temperature;BMP_pressure;BME280_temperature;BME280_humidity;BME280_pressure;Samples;Min_cycle;Max_cycle;Signal;HPM_P1;HPM_P2
2021/03/05 00:00:42;;;;;;;11.23;5.17;;;;;;;1.63;88.84;101421.39;123653;1102;64917;-77
2021/03/05 00:03:09;;;;;;;15.17;6.93;;;;;;;1.62;88.36;101419.73;123566;1105;64879;-77
2021/03/05 00:05:39;;;;;;;13.63;6.23;;;;;;;1.60;88.86;101418.98;123992;1105;64968;-80
2021/03/05 00:08:07;;;;;;;9.77;5.03;;;;;;;1.61;88.98;101419.82;123751;1106;64854;-79
2021/03/05 00:10:36;;;;;;;6.90;3.33;;;;;;;1.62;88.47;101424.96;123609;1105;65045;-80
2021/03/05 00:13:05;;;;;;;5.70;3.30;;;;;;;1.59;88.55;101425.17;124167;1106;64535;-81
2021/03/05 00:15:44;;;;;;;7.30;4.97;;;;;;;1.56;88.50;101425.35;124479;1106;64985;-79
2021/03/05 00:18:12;;;;;;;9.83;4.57;;;;;;;1.56;88.42;101433.20;124936;1103;65065;-79
2021/03/05 00:20:42;;;;;;;10.37;5.20;;;;;;;1.54;88.07;101432.45;124571;1105;65001;-80
2021/03/05 00:23:09;;;;;;;9.95;4.95;;;;;;;1.53;88.04;101436.02;123807;1105;64928;-79
2021/03/05 00:25:35;;;;;;;6.27;2.97;;;;;;;1.51;87.99;101442.26;123465;1105;64914;-79
2021/03/05 00:28:03;;;;;;;11.00;5.87;;;;;;;1.51;88.45;101443.13;123876;1105;65715;-79
2021/03/05 00:30:30;;;;;;;12.27;6.33;;;;;;;1.50;88.04;101445.83;123910;1105;64927;-81
2021/03/05 00:32:56;;;;;;;8.25;3.70;;;;;;;1.47;87.77;101452.09;123562;1105;64933;-79
2021/03/05 00:35:23;;;;;;;9.30;4.73;;;;;;;1.45;88.15;101456.58;124007;1105;64990;-79
2021/03/05 00:37:51;;;;;;;9.85;4.05;;;;;;;1.39;87.62;101459.58;123570;1105;64968;-78
2021/03/05 00:40:19;;;;;;;10.40;4.30;;;;;;;1.39;87.88;101459.58;123526;1105;64928;-79
2021/03/05 00:42:47;;;;;;;13.60;5.60;;;;;;;1.39;87.82;101464.81;123706;1105;64920;-79
2021/03/05 00:45:16;;;;;;;8.03;4.27;;;;;;;1.37;87.66;101466.67;123407;1105;64940;-79
2021/03/05 00:47:42;;;;;;;12.25;4.70;;;;;;;1.32;87.70;101468.72;123901;1102;65695;-78
2021/03/05 00:50:11;;;;;;;9.23;5.20;;;;;;;1.27;87.69;101462.95;123439;1104;64966;-79
2021/03/05 00:52:37;;;;;;;7.57;3.57;;;;;;;1.23;87.20;101470.14;123691;1105;64913;-79
2021/03/05 00:55:09;;;;;;;11.10;4.30;;;;;;;1.18;87.54;101473.05;123406;1103;64931;-79
2021/03/05 00:57:36;;;;;;;5.00;2.80;;;;;;;1.11;87.43;101471.75;123413;1105;64949;-79
2021/03/05 01:00:08;;;;;;;8.80;3.93;;;;;;;1.06;87.53;101480.80;123668;1105;64889;-81
2021/03/05 01:02:34;;;;;;;6.20;3.47;;;;;;;1.01;87.79;101481.09;123880;1105;65388;-81
2021/03/05 01:05:02;;;;;;;10.73;4.93;;;;;;;0.95;87.79;101479.67;123642;1105;65411;-79
2021/03/05 01:07:28;;;;;;;8.70;5.27;;;;;;;0.92;87.78;101481.66;123419;1102;64919;-79
2021/03/05 01:09:54;;;;;;;11.23;5.83;;;;;;;0.88;87.47;101488.83;123406;1102;64867;-79
2021/03/05 01:12:21;;;;;;;15.13;5.27;;;;;;;0.84;87.66;101487.33;123445;1105;64860;-81
2021/03/05 01:14:52;;;;;;;9.60;5.15;;;;;;;0.80;87.76;101497.11;124280;1105;65148;-79
2021/03/05 01:17:27;;;;;;;8.77;3.83;;;;;;;0.74;88.24;101494.03;123615;1105;64959;-79
2021/03/05 01:19:54;;;;;;;10.20;4.07;;;;;;;0.69;87.96;101496.92;123612;1103;64936;-80
2021/03/05 01:22:20;;;;;;;7.95;3.80;;;;;;;0.65;87.89;101494.59;123626;1105;64942;-78
2021/03/05 01:24:46;;;;;;;8.50;2.40;;;;;;;0.61;87.72;101494.75;123583;1105;64908;-79
2021/03/05 01:27:12;;;;;;;5.12;2.80;;;;;;;0.54;87.87;101500.45;123700;1102;64963;-79
2021/03/05 01:29:39;;;;;;;6.33;3.27;;;;;;;0.48;87.23;101503.41;124293;1102;64911;-81
2021/03/05 01:32:05;;;;;;;4.70;2.40;;;;;;;0.39;86.67;101500.41;123563;1105;64864;-80
2021/03/05 01:34:32;;;;;;;8.00;3.10;;;;;;;0.31;86.89;101502.62;123446;1102;64930;-78
2021/03/05 01:36:58;;;;;;;3.97;1.87;;;;;;;0.21;87.46;101498.84;123491;1106;64895;-81
2021/03/05 01:39:24;;;;;;;5.30;2.67;;;;;;;0.13;87.04;101499.31;123977;1105;64986;-79
2021/03/05 01:41:50;;;;;;;6.33;2.80;;;;;;;0.04;86.67;101507.64;123500;1102;64937;-79
2021/03/05 01:44:16;;;;;;;9.40;2.83;;;;;;;-0.06;86.66;101515.16;123710;1105;64995;-79
2021/03/05 01:46:43;;;;;;;3.43;1.70;;;;;;;-0.15;87.51;101507.00;123410;1105;64971;-80
2021/03/05 01:49:10;;;;;;;4.10;1.75;;;;;;;-0.28;86.91;101514.66;123450;1105;65071;-79
2021/03/05 01:51:37;;;;;;;4.53;2.00;;;;;;;-0.33;87.28;101514.09;123744;1105;65035;-80
2021/03/05 01:54:06;;;;;;;7.87;3.13;;;;;;;-0.39;87.10;101517.02;124329;1102;64953;-81
2021/03/05 01:56:37;;;;;;;4.33;2.13;;;;;;;-0.47;86.64;101514.82;124301;1102;65062;-81
2021/03/05 01:59:05;;;;;;;3.40;1.70;;;;;;;-0.54;87.49;101522.14;123581;1103;64922;-80
2021/03/05 02:01:33;;;;;;;2.33;1.03;;;;;;;-0.65;86.80;101516.67;123653;1103;64937;-79
2021/03/05 02:04:07;;;;;;;1.07;0.63;;;;;;;-0.73;87.33;101513.62;123633;1102;64914;-77
2021/03/05 02:06:38;;;;;;;5.43;1.47;;;;;;;-0.78;87.03;101523.47;123358;1101;64921;-80
2021/03/05 02:09:07;;;;;;;3.70;1.30;;;;;;;-0.84;87.55;101535.88;123533;1105;65045;-79
2021/03/05 02:11:33;;;;;;;2.33;1.07;;;;;;;-0.87;87.23;101538.66;123641;1105;65663;-77
2021/03/05 02:14:04;;;;;;;6.15;1.40;;;;;;;-0.90;87.85;101544.01;123995;1105;65014;-79
2021/03/05 02:16:52;;;;;;;3.43;1.10;;;;;;;-0.90;87.75;101540.56;123759;1102;64863;-77
2021/03/05 02:19:47;;;;;;;7.93;1.60;;;;;;;-0.91;87.59;101542.34;123530;1102;65193;-81
2021/03/05 02:22:43;;;;;;;4.90;1.67;;;;;;;-0.91;88.04;101546.71;124079;1102;65718;-80
2021/03/05 02:25:28;;;;;;;2.23;1.20;;;;;;;-0.95;87.92;101550.39;124111;1103;64812;-79
2021/03/05 02:28:39;;;;;;;1.85;1.00;;;;;;;-1.02;87.51;101549.84;123935;1102;64928;-79
2021/03/05 02:31:29;;;;;;;4.10;1.60;;;;;;;-1.04;87.41;101556.92;123576;1109;64786;-79
2021/03/05 02:34:19;;;;;;;1.40;0.80;;;;;;;-1.08;87.24;101561.44;123509;1105;65097;-79
2021/03/05 02:36:59;;;;;;;1.60;0.97;;;;;;;-1.10;87.24;101568.48;123532;1105;65038;-78
2021/03/05 02:39:49;;;;;;;4.37;1.60;;;;;;;-1.15;87.31;101569.63;123526;1102;64815;-78
2021/03/05 02:42:26;;;;;;;3.95;1.85;;;;;;;-1.18;87.32;101569.80;123467;1102;65000;-79
2021/03/05 02:44:58;;;;;;;11.23;2.00;;;;;;;-1.24;86.66;101576.98;123383;1105;64930;-78
2021/03/05 02:47:25;;;;;;;3.47;1.50;;;;;;;-1.27;87.80;101582.34;123437;1105;65018;-78
2021/03/05 02:49:54;;;;;;;3.90;1.63;;;;;;;-1.29;88.07;101581.58;123747;1105;64963;-78
2021/03/05 02:52:25;;;;;;;1.87;0.90;;;;;;;-1.32;87.85;101583.48;123577;1104;63998;-81
2021/03/05 02:54:58;;;;;;;2.87;1.13;;;;;;;-1.32;88.76;101593.89;123613;1105;64927;-79
2021/03/05 02:57:29;;;;;;;2.90;1.03;;;;;;;-1.31;88.31;101595.59;123484;1105;65036;-79
2021/03/05 02:59:56;;;;;;;1.43;0.73;;;;;;;-1.32;87.85;101593.89;123515;1105;66195;-80
2021/03/05 03:02:25;;;;;;;10.30;2.63;;;;;;;-1.34;89.20;101596.60;123656;1105;64956;-80
2021/03/05 03:04:57;;;;;;;3.97;1.60;;;;;;;-1.35;87.90;101592.30;123801;1105;64917;-78
2021/03/05 03:07:42;;;;;;;2.17;0.80;;;;;;;-1.35;88.40;101600.11;123420;1102;64931;-80
2021/03/05 03:10:10;;;;;;;2.20;1.17;;;;;;;-1.36;88.65;101602.77;123640;1102;64930;-79
2021/03/05 03:12:38;;;;;;;4.53;1.70;;;;;;;-1.35;87.54;101601.88;123858;1105;64904;-80
2021/03/05 03:15:10;;;;;;;1.00;0.47;;;;;;;-1.37;89.03;101599.34;123548;1105;65077;-78
2021/03/05 03:17:40;;;;;;;5.75;1.45;;;;;;;-1.37;88.82;101601.94;123619;1105;64998;-79
2021/03/05 03:20:08;;;;;;;2.00;1.00;;;;;;;-1.38;87.44;101613.28;123685;1102;64927;-79
2021/03/05 03:22:34;;;;;;;2.70;1.00;;;;;;;-1.39;88.63;101619.39;124049;1105;64940;-79
2021/03/05 03:25:01;;;;;;;1.60;0.80;;;;;;;-1.40;87.12;101619.45;123517;1105;66272;-79
2021/03/05 03:27:27;;;;;;;3.17;1.63;;;;;;;-1.43;88.01;101617.85;123671;1103;64972;-79
2021/03/05 03:29:54;;;;;;;2.90;0.93;;;;;;;-1.44;88.84;101627.42;123723;1102;64905;-81
2021/03/05 03:32:21;;;;;;;4.07;1.40;;;;;;;-1.44;88.36;101634.39;123866;1105;65371;-79
2021/03/05 03:34:50;;;;;;;2.00;1.03;;;;;;;-1.48;88.54;101638.90;123802;1102;64937;-79
2021/03/05 03:37:18;;;;;;;1.77;0.93;;;;;;;-1.52;87.30;101645.16;123644;1106;64962;-79
2021/03/05 03:39:45;;;;;;;2.27;0.83;;;;;;;-1.54;88.56;101647.00;124057;1102;64992;-80
2021/03/05 03:42:12;;;;;;;2.90;0.70;;;;;;;-1.56;87.44;101654.03;123503;1105;64949;-80
2021/03/05 03:44:38;;;;;;;0.43;0.40;;;;;;;-1.59;88.60;101659.39;123911;1105;65011;-79
2021/03/05 03:47:05;;;;;;;1.50;0.90;;;;;;;-1.60;88.50;101657.69;123493;1105;64988;-81
2021/03/05 03:49:36;;;;;;;2.67;0.87;;;;;;;-1.62;89.37;101669.09;123689;1105;64937;-81
2021/03/05 03:52:07;;;;;;;6.33;1.20;;;;;;;-1.66;88.45;101666.65;124262;1105;64911;-79
2021/03/05 03:54:34;;;;;;;5.10;0.70;;;;;;;-1.72;87.88;101659.12;123767;1105;64941;-79
2021/03/05 03:57:03;;;;;;;6.05;1.40;;;;;;;-1.73;88.80;101667.00;123741;1105;64857;-78
2021/03/05 03:59:33;;;;;;;3.87;1.53;;;;;;;-1.78;88.04;101680.22;123696;1105;65003;-79
2021/03/05 04:02:01;;;;;;;4.53;1.00;;;;;;;-1.84;88.37;101677.90;124051;1105;64931;-80
2021/03/05 04:04:32;;;;;;;2.27;1.10;;;;;;;-1.88;88.94;101684.16;123662;1106;64924;-80
2021/03/05 04:07:01;;;;;;;3.27;1.27;;;;;;;-1.93;88.18;101684.37;123979;1102;64863;-80
2021/03/05 04:09:28;;;;;;;6.77;1.37;;;;;;;-1.99;89.09;101683.81;123760;1105;64968;-79
2021/03/05 04:11:56;;;;;;;1.97;0.87;;;;;;;-2.06;87.74;101684.09;123694;1105;64978;-79
2021/03/05 04:14:24;;;;;;;3.83;1.63;;;;;;;-2.12;87.97;101686.12;123863;1105;64915;-79
2021/03/05 04:16:57;;;;;;;4.57;1.80;;;;;;;-2.16;89.19;101693.20;123746;1106;65380;-80
2021/03/05 04:19:28;;;;;;;1.95;0.90;;;;;;;-2.23;89.53;101697.00;123745;1105;64857;-80
2021/03/05 04:21:55;;;;;;;4.30;1.17;;;;;;;-2.27;88.73;101695.44;123625;1102;65324;-78
2021/03/05 04:24:21;;;;;;;6.07;2.10;;;;;;;-2.31;89.61;101691.28;124019;1105;64975;-79
2021/03/05 04:26:48;;;;;;;2.70;1.63;;;;;;;-2.34;89.08;101692.27;123604;1105;64936;-80
2021/03/05 04:29:14;;;;;;;9.80;1.60;;;;;;;-2.39;89.10;101694.20;123959;1103;64924;-79
2021/03/05 04:31:41;;;;;;;2.25;1.12;;;;;;;-2.41;89.02;101701.23;123760;1104;64930;-78
2021/03/05 04:34:07;;;;;;;3.65;1.77;;;;;;;-2.47;89.45;101707.52;123605;1106;64965;-79
2021/03/05 04:36:34;;;;;;;3.53;1.80;;;;;;;-2.53;89.10;101710.41;123409;1106;64895;-81
2021/03/05 04:39:04;;;;;;;3.87;1.70;;;;;;;-2.59;88.75;101708.06;123588;1105;65255;-79
2021/03/05 04:41:30;;;;;;;2.03;0.90;;;;;;;-2.64;89.55;101717.79;123584;1105;65096;-79
2021/03/05 04:43:58;;;;;;;6.37;1.80;;;;;;;-2.68;89.45;101718.83;123662;1105;65017;-78
2021/03/05 04:46:26;;;;;;;5.23;1.67;;;;;;;-2.75;89.59;101712.21;123594;1105;64953;-78
2021/03/05 04:48:53;;;;;;;4.17;1.90;;;;;;;-2.79;89.15;101708.05;123473;1106;64956;-78
2021/03/05 04:51:19;;;;;;;2.73;1.27;;;;;;;-2.84;89.25;101712.60;123371;1102;64911;-78
2021/03/05 04:53:46;;;;;;;7.20;1.57;;;;;;;-2.89;89.54;101717.96;123416;1105;64917;-79
2021/03/05 04:56:12;;;;;;;7.20;1.40;;;;;;;-2.93;90.57;101729.41;123397;1102;64911;-80
2021/03/05 04:58:38;;;;;;;6.53;2.27;;;;;;;-2.96;90.17;101737.30;123383;1104;65081;-79
2021/03/05 05:01:04;;;;;;;7.90;1.70;;;;;;;-3.01;90.65;101737.49;123544;1105;65059;-79
2021/03/05 05:03:30;;;;;;;5.50;2.20;;;;;;;-3.02;89.83;101733.19;123352;1102;64930;-78
2021/03/05 05:05:56;;;;;;;4.20;1.72;;;;;;;-3.04;90.30;101735.00;123488;1105;64990;-78
2021/03/05 05:08:22;;;;;;;6.13;2.17;;;;;;;-3.05;89.88;101735.92;123628;1102;64869;-79
2021/03/05 05:10:50;;;;;;;7.10;1.87;;;;;;;-3.09;90.05;101740.38;123667;1102;65025;-78
2021/03/05 05:13:16;;;;;;;5.73;1.60;;;;;;;-3.12;89.88;101740.52;123814;1105;64914;-79
2021/03/05 05:15:43;;;;;;;3.63;1.53;;;;;;;-3.16;90.03;101738.11;123432;1102;64950;-78
2021/03/05 05:18:09;;;;;;;4.97;1.50;;;;;;;-3.21;90.84;101740.03;123817;1105;64995;-76
2021/03/05 05:20:36;;;;;;;7.78;1.77;;;;;;;-3.22;90.32;101740.95;124502;1105;65052;-79
2021/03/05 05:23:03;;;;;;;4.63;1.40;;;;;;;-3.25;91.09;101751.43;123724;1105;64880;-78
2021/03/05 05:25:29;;;;;;;4.75;1.95;;;;;;;-3.28;90.94;101750.64;123410;1105;65058;-79
2021/03/05 05:27:55;;;;;;;4.43;1.80;;;;;;;-3.32;90.66;101758.61;123356;1106;64937;-77
2021/03/05 05:30:22;;;;;;;7.10;1.97;;;;;;;-3.35;90.16;101772.55;123459;1105;65534;-78
2021/03/05 05:32:48;;;;;;;7.97;1.77;;;;;;;-3.37;91.00;101770.93;123898;1104;64930;-78
2021/03/05 05:35:15;;;;;;;5.07;1.37;;;;;;;-3.41;90.44;101772.78;123452;1105;64962;-77
2021/03/05 05:37:41;;;;;;;2.00;1.20;;;;;;;-3.44;91.03;101782.42;123428;1102;64863;-77
2021/03/05 05:40:08;;;;;;;4.97;1.60;;;;;;;-3.46;91.08;101782.50;123423;1105;64985;-78
2021/03/05 05:42:34;;;;;;;3.87;1.62;;;;;;;-3.49;91.20;101785.20;123380;1102;64991;-77
2021/03/05 05:45:00;;;;;;;5.37;1.73;;;;;;;-3.50;90.71;101791.30;123354;1106;64853;-77
2021/03/05 05:47:29;;;;;;;6.50;2.00;;;;;;;-3.53;91.01;101791.40;123402;1106;64923;-78
2021/03/05 05:50:03;;;;;;;7.53;2.00;;;;;;;-3.53;90.96;101791.40;123636;1103;65068;-78
2021/03/05 05:52:31;;;;;;;6.40;1.75;;;;;;;-3.55;91.63;101798.39;123950;1105;65020;-77
2021/03/05 05:54:58;;;;;;;3.20;2.30;;;;;;;-3.54;91.50;101800.09;123527;1105;65023;-78
2021/03/05 05:57:28;;;;;;;2.70;1.57;;;;;;;-3.56;91.46;101801.91;123537;1102;64931;-79
2021/03/05 05:59:58;;;;;;;3.50;1.90;;;;;;;-3.55;91.80;101804.45;124146;1105;64946;-78
2021/03/05 06:02:25;;;;;;;7.37;1.77;;;;;;;-3.55;91.56;101809.63;123610;1106;65019;-79
2021/03/05 06:04:53;;;;;;;7.00;2.40;;;;;;;-3.54;91.25;101818.25;123674;1105;65081;-78
2021/03/05 06:07:22;;;;;;;3.10;1.97;;;;;;;-3.52;91.54;101811.27;123574;1102;64994;-79
2021/03/05 06:10:04;;;;;;;7.50;2.10;;;;;;;-3.47;91.82;101817.11;124110;1105;65396;-81
2021/03/05 06:12:31;;;;;;;1.87;0.93;;;;;;;-3.42;91.47;101815.21;123681;1105;65219;-78
2021/03/05 06:14:58;;;;;;;4.13;1.20;;;;;;;-3.36;91.40;101827.95;123768;1102;65021;-79
2021/03/05 06:17:47;;;;;;;2.55;1.35;;;;;;;-3.33;91.00;101832.17;123367;1105;64910;-80
2021/03/05 06:20:16;;;;;;;3.93;1.40;;;;;;;-3.32;91.05;101829.50;123605;1102;64905;-79
2021/03/05 06:22:43;;;;;;;3.43;1.20;;;;;;;-3.30;90.83;101837.23;123810;1105;65590;-78
2021/03/05 06:25:11;;;;;;;4.43;1.60;;;;;;;-3.27;90.80;101842.33;123871;1102;65040;-78
2021/03/05 06:27:38;;;;;;;3.60;1.13;;;;;;;-3.24;90.39;101849.15;123548;1102;64920;-79
2021/03/05 06:30:07;;;;;;;1.27;0.90;;;;;;;-3.22;90.60;101855.97;123655;1105;63704;-79
2021/03/05 06:32:36;;;;;;;1.10;0.73;;;;;;;-3.21;90.68;101859.40;124412;1102;64882;-79
2021/03/05 06:35:04;;;;;;;2.00;1.00;;;;;;;-3.14;91.40;101866.91;123558;1105;65743;-79
2021/03/05 06:37:47;;;;;;;1.80;0.57;;;;;;;-3.07;91.83;101870.95;123544;1105;64864;-78
2021/03/05 06:40:30;;;;;;;9.93;1.63;;;;;;;-3.01;90.46;101876.84;123574;1103;64942;-79
2021/03/05 06:42:57;;;;;;;3.47;1.20;;;;;;;-2.99;90.32;101870.67;123558;1103;65683;-79
2021/03/05 06:45:35;;;;;;;4.90;1.63;;;;;;;-2.95;90.08;101876.61;123571;1102;64930;-80
2021/03/05 06:48:07;;;;;;;2.77;1.40;;;;;;;-2.91;90.09;101878.15;123575;1105;65047;-80
2021/03/05 06:50:42;;;;;;;7.10;1.95;;;;;;;-2.87;90.34;101882.32;124997;1105;64995;-78
2021/03/05 06:53:22;;;;;;;4.43;1.87;;;;;;;-2.84;90.64;101892.61;123669;1102;65712;-78
2021/03/05 06:55:48;;;;;;;3.33;1.50;;;;;;;-2.79;89.96;101892.42;123488;1105;65349;-79
2021/03/05 06:58:15;;;;;;;3.80;1.80;;;;;;;-2.73;90.54;101899.98;123825;1102;64997;-79
2021/03/05 07:00:42;;;;;;;11.03;2.40;;;;;;;-2.68;89.60;101900.64;123466;1106;64904;-80
2021/03/05 07:03:23;;;;;;;4.00;1.80;;;;;;;-2.62;89.75;101908.19;124054;1106;64699;-81
2021/03/05 07:05:55;;;;;;;3.65;1.60;;;;;;;-2.57;89.60;101914.08;123826;1106;64972;-80
2021/03/05 07:08:44;;;;;;;8.27;1.57;;;;;;;-2.48;90.50;101924.09;123815;1102;64941;-78
2021/03/05 07:11:13;;;;;;;9.50;2.30;;;;;;;-2.38;89.89;101918.52;123399;1105;64866;-79
2021/03/05 07:13:51;;;;;;;3.77;1.40;;;;;;;-2.28;89.29;101927.64;123451;1105;64981;-79
2021/03/05 07:16:18;;;;;;;5.00;1.90;;;;;;;-2.23;89.78;101920.53;123639;1105;64914;-79
2021/03/05 07:18:45;;;;;;;2.20;1.23;;;;;;;-2.07;89.23;101938.93;123866;1105;64933;-80
2021/03/05 07:21:17;;;;;;;4.90;1.83;;;;;;;-1.96;88.16;101930.69;123505;1105;65402;-79
2021/03/05 07:23:48;;;;;;;4.83;1.43;;;;;;;-1.87;88.12;101945.90;123802;1105;64866;-79
2021/03/05 07:26:15;;;;;;;6.60;1.87;;;;;;;-1.80;87.59;101942.15;123816;1102;66094;-79
2021/03/05 07:28:45;;;;;;;6.37;1.60;;;;;;;-1.74;88.36;101941.89;123894;1105;64738;-77
2021/03/05 07:31:16;;;;;;;4.00;1.63;;;;;;;-1.63;87.58;101951.01;123600;1105;64943;-79
2021/03/05 07:33:49;;;;;;;7.63;0.93;;;;;;;-1.56;87.81;101955.03;123950;1105;65392;-77
2021/03/05 07:36:16;;;;;;;4.70;1.70;;;;;;;-1.49;86.94;101954.71;123701;1105;63028;-78
2021/03/05 07:38:46;;;;;;;2.25;0.95;;;;;;;-1.44;86.45;101959.72;123560;1105;64924;-79
2021/03/05 07:41:15;;;;;;;5.17;2.00;;;;;;;-1.37;85.60;101958.52;123445;1103;64811;-81
2021/03/05 07:43:41;;;;;;;2.77;1.40;;;;;;;-1.32;86.19;101959.19;123601;1102;64940;-81
2021/03/05 07:46:08;;;;;;;5.73;1.73;;;;;;;-1.25;86.05;101965.80;123610;1104;64825;-81
2021/03/05 07:48:35;;;;;;;4.57;1.33;;;;;;;-1.17;84.95;101967.21;123985;1102;66130;-79
2021/03/05 07:51:02;;;;;;;9.37;1.77;;;;;;;-1.10;86.26;101968.66;123403;1105;64899;-79
2021/03/05 07:53:29;;;;;;;3.10;1.53;;;;;;;-1.03;85.03;101960.48;123620;1105;65132;-79
2021/03/05 07:55:55;;;;;;;0.83;0.50;;;;;;;-0.95;84.52;101972.33;123441;1105;64937;-79
2021/03/05 07:58:44;;;;;;;6.40;1.10;;;;;;;-0.89;84.59;101970.30;123514;1104;64965;-79
2021/03/05 08:01:11;;;;;;;4.05;1.50;;;;;;;-0.85;83.92;101979.66;123787;1105;64972;-78
2021/03/05 08:03:54;;;;;;;3.37;1.27;;;;;;;-0.79;83.43;101982.89;124115;1105;64908;-78
2021/03/05 08:06:28;;;;;;;3.47;1.27;;;;;;;-0.73;83.46;101985.22;123909;1105;65026;-79
2021/03/05 08:09:09;;;;;;;4.40;1.77;;;;;;;-0.67;83.38;101977.12;124198;1105;65314;-80
2021/03/05 08:11:38;;;;;;;3.43;1.23;;;;;;;-0.56;83.61;101993.09;123798;1105;64892;-79
2021/03/05 08:14:25;;;;;;;1.97;0.97;;;;;;;-0.47;82.57;101984.88;124016;1105;64911;-79
2021/03/05 08:16:55;;;;;;;2.97;1.40;;;;;;;-0.34;82.67;101990.36;124258;1105;65014;-77
2021/03/05 08:19:21;;;;;;;6.93;2.03;;;;;;;-0.24;81.74;101993.35;123397;1106;66197;-78
2021/03/05 08:21:51;;;;;;;1.98;1.12;;;;;;;-0.19;81.77;102004.43;123362;1102;64944;-77
2021/03/05 08:24:24;;;;;;;3.97;1.47;;;;;;;-0.11;82.03;102006.66;123417;1105;65904;-80
2021/03/05 08:27:05;;;;;;;2.90;1.47;;;;;;;-0.05;81.04;102001.98;123367;1105;65252;-77
2021/03/05 08:29:47;;;;;;;4.80;1.77;;;;;;;0.01;80.83;101994.80;123398;1105;65685;-79
2021/03/05 08:32:34;;;;;;;7.60;2.13;;;;;;;0.10;81.84;102000.39;123721;1104;64963;-79
2021/03/05 08:35:17;;;;;;;3.87;1.63;;;;;;;0.20;80.73;101991.20;123626;1106;64905;-79
2021/03/05 08:38:03;;;;;;;7.63;1.50;;;;;;;0.33;81.13;102006.26;123757;1105;64965;-79
2021/03/05 08:40:38;;;;;;;2.77;1.57;;;;;;;0.40;80.25;102007.62;123907;1102;64837;-79
2021/03/05 08:43:10;;;;;;;5.30;2.15;;;;;;;0.46;80.76;102003.88;124095;1105;64937;-78
2021/03/05 08:45:45;;;;;;;6.97;1.80;;;;;;;0.57;79.66;102006.78;123512;1105;65457;-79
2021/03/05 08:48:15;;;;;;;3.37;1.23;;;;;;;0.62;79.39;102010.02;123647;1105;65020;-79
2021/03/05 08:50:42;;;;;;;4.13;1.40;;;;;;;0.71;79.73;102012.16;123592;1105;64867;-78
2021/03/05 08:53:12;;;;;;;4.10;1.43;;;;;;;0.84;79.26;102006.30;123858;1105;64918;-79
2021/03/05 08:55:40;;;;;;;2.83;1.33;;;;;;;0.93;79.26;102005.81;123699;1105;64902;-78
2021/03/05 08:58:09;;;;;;;5.90;1.80;;;;;;;1.03;78.40;102016.64;123349;1103;65027;-79
2021/03/05 09:00:36;;;;;;;4.13;1.53;;;;;;;1.09;78.11;102022.38;123310;1105;64946;-79
2021/03/05 09:03:09;;;;;;;3.40;1.23;;;;;;;1.18;78.09;102016.66;123596;1103;64936;-80
2021/03/05 09:05:38;;;;;;;2.47;1.50;;;;;;;1.31;77.78;102026.47;123424;1105;64991;-77
2021/03/05 09:08:06;;;;;;;5.77;1.60;;;;;;;1.41;78.11;102031.13;124285;1105;64963;-79
2021/03/05 09:10:47;;;;;;;4.77;1.60;;;;;;;1.48;76.42;102036.86;123991;1105;64968;-78
2021/03/05 09:13:17;;;;;;;5.65;1.45;;;;;;;1.54;76.24;102044.38;124037;1102;64978;-78
2021/03/05 09:15:48;;;;;;;5.70;2.13;;;;;;;1.55;76.05;102035.62;123755;1106;64907;-78
2021/03/05 09:18:17;;;;;;;9.13;1.83;;;;;;;1.52;76.52;102035.77;123582;1102;64936;-78
2021/03/05 09:20:47;;;;;;;3.87;1.70;;;;;;;1.56;76.54;102037.30;123747;1104;64875;-78
2021/03/05 09:23:17;;;;;;;4.65;1.80;;;;;;;1.75;77.49;102047.59;123472;1102;65040;-78
2021/03/05 09:25:55;;;;;;;2.47;1.23;;;;;;;1.88;76.34;102041.69;123415;1105;65068;-78
2021/03/05 09:28:24;;;;;;;3.05;1.30;;;;;;;1.82;75.39;102042.86;123449;1105;65698;-79
2021/03/05 09:30:53;;;;;;;3.35;1.25;;;;;;;1.75;75.13;102047.59;123895;1105;65455;-79
2021/03/05 09:33:34;;;;;;;8.13;2.17;;;;;;;1.72;75.02;102057.37;124149;1105;64931;-80
2021/03/05 09:36:01;;;;;;;4.63;2.03;;;;;;;1.73;74.38;102048.62;124153;1105;65048;-79
2021/03/05 09:38:28;;;;;;;8.27;1.83;;;;;;;1.75;75.99;102054.61;124381;1105;66244;-78
2021/03/05 09:41:20;;;;;;;4.83;1.47;;;;;;;1.94;76.27;102055.27;124629;1103;65004;-78
2021/03/05 09:44:00;;;;;;;3.73;1.13;;;;;;;2.13;74.62;102062.11;125435;1105;62429;-79
2021/03/05 09:46:31;;;;;;;5.97;1.60;;;;;;;2.24;75.12;102063.17;124662;1105;65257;-78
2021/03/05 09:48:59;;;;;;;2.50;1.67;;;;;;;2.29;72.46;102068.14;124507;1105;63591;-78
2021/03/05 09:51:36;;;;;;;2.37;0.90;;;;;;;2.32;72.99;102067.14;124067;1102;64851;-78
2021/03/05 09:54:03;;;;;;;3.23;1.30;;;;;;;2.30;74.12;102069.01;123812;1105;64876;-78
2021/03/05 09:56:44;;;;;;;3.57;1.63;;;;;;;2.40;73.54;102071.02;123625;1105;64992;-76
2021/03/05 09:59:12;;;;;;;5.17;2.43;;;;;;;2.58;72.73;102073.50;123784;1105;64940;-78
2021/03/05 10:01:41;;;;;;;7.97;1.70;;;;;;;2.74;72.05;102068.19;123590;1105;64957;-79
2021/03/05 10:04:12;;;;;;;4.37;1.80;;;;;;;2.78;70.91;102081.02;123755;1105;64875;-78
2021/03/05 10:06:39;;;;;;;2.37;1.20;;;;;;;2.86;70.08;102084.03;123642;1103;64863;-79
2021/03/05 10:09:10;;;;;;;2.00;1.00;;;;;;;3.00;71.24;102093.72;123545;1105;64975;-77
2021/03/05 10:11:42;;;;;;;4.40;1.57;;;;;;;3.10;70.39;102085.29;123632;1105;65020;-80
2021/03/05 10:14:23;;;;;;;2.97;1.10;;;;;;;3.28;70.93;102080.73;123763;1105;64997;-79
2021/03/05 10:16:50;;;;;;;6.75;1.90;;;;;;;3.42;69.14;102091.20;123701;1105;64942;-78
2021/03/05 10:19:24;;;;;;;3.60;1.30;;;;;;;3.65;69.65;102090.62;124569;1105;65715;-79
2021/03/05 10:21:51;;;;;;;5.47;1.60;;;;;;;3.84;68.98;102102.60;124592;1106;64872;-78
2021/03/05 10:24:26;;;;;;;3.27;1.20;;;;;;;4.00;67.40;102108.58;124321;1105;64917;-78
2021/03/05 10:29:47;;;;;;;4.37;1.87;;;;;;;4.16;65.75;102115.47;124230;1102;64931;-78
2021/03/05 10:32:37;;;;;;;5.03;1.63;;;;;;;3.98;63.40;102115.70;124450;1105;64908;-80
2021/03/05 10:35:09;;;;;;;5.77;1.80;;;;;;;4.00;63.96;102113.00;123983;1103;64917;-79
2021/03/05 10:37:36;;;;;;;1.27;0.80;;;;;;;3.98;62.18;102122.75;124062;1105;63824;-79
2021/03/05 10:40:06;;;;;;;4.77;1.20;;;;;;;3.95;63.96;102120.30;123998;1105;65512;-80
2021/03/05 10:42:32;;;;;;;2.00;1.00;;;;;;;3.96;60.41;102116.75;123661;1105;64981;-79
2021/03/05 10:44:58;;;;;;;4.13;1.20;;;;;;;4.04;62.83;102117.95;123553;1105;64870;-80
2021/03/05 10:47:25;;;;;;;1.97;1.30;;;;;;;4.15;62.71;102122.52;123722;1105;64928;-80
2021/03/05 10:49:52;;;;;;;2.43;1.43;;;;;;;4.27;62.45;102134.00;124036;1106;64921;-79
2021/03/05 10:52:23;;;;;;;4.35;1.35;;;;;;;4.28;60.44;102133.08;123731;1103;64991;-79
2021/03/05 10:54:50;;;;;;;3.03;1.00;;;;;;;4.31;60.33;102132.87;123816;1106;64958;-79
2021/03/05 10:57:18;;;;;;;2.47;1.10;;;;;;;4.33;60.40;102140.66;123574;1105;66051;-78
2021/03/05 10:59:49;;;;;;;3.73;0.97;;;;;;;4.40;60.07;102142.80;124415;1102;64940;-77
2021/03/05 11:02:17;;;;;;;4.47;1.20;;;;;;;4.38;57.50;102141.19;124231;1105;64873;-79
2021/03/05 11:04:44;;;;;;;1.30;0.70;;;;;;;4.55;59.12;102146.22;123828;1105;64917;-78
2021/03/05 11:07:11;;;;;;;1.95;0.90;;;;;;;4.71;59.41;102143.42;124015;1105;64854;-78
2021/03/05 11:09:37;;;;;;;3.40;0.97;;;;;;;4.96;57.13;102134.75;124172;1105;64921;-79
2021/03/05 11:12:05;;;;;;;2.70;1.27;;;;;;;5.09;56.14;102145.29;123943;1105;65880;-79
2021/03/05 11:14:31;;;;;;;4.30;1.40;;;;;;;5.31;57.03;102140.27;123910;1105;66698;-79
2021/03/05 11:16:57;;;;;;;6.20;1.30;;;;;;;5.54;56.13;102143.08;123687;1105;64942;-78
2021/03/05 11:19:26;;;;;;;1.07;0.80;;;;;;;5.81;55.08;102142.95;123689;1105;64953;-79
2021/03/05 11:21:53;;;;;;;2.37;1.20;;;;;;;6.05;52.79;102137.75;123820;1105;64799;-78
2021/03/05 11:24:19;;;;;;;3.20;1.10;;;;;;;6.07;50.98;102146.39;123587;1105;64905;-79
2021/03/05 11:26:45;;;;;;;1.67;0.90;;;;;;;6.01;50.18;102144.19;123621;1106;64863;-80
2021/03/05 11:29:13;;;;;;;4.00;1.10;;;;;;;5.93;49.60;102157.05;124243;1105;64786;-79
2021/03/05 11:31:39;;;;;;;3.10;0.90;;;;;;;5.86;50.39;102150.52;123920;1104;65082;-79
2021/03/05 11:34:06;;;;;;;4.97;1.00;;;;;;;5.69;48.99;102149.91;124023;1105;65166;-81
2021/03/05 11:36:32;;;;;;;1.97;0.50;;;;;;;5.76;49.29;102144.21;123860;1105;64988;-79